Time;durP1;ratioP1;P1;durP2;ratioP2;P2;SDS_P1;SDS_P2;PMS_P1;PMS_P2;Temp;Humidity;BMP_temperature;BMP_pressure;BME280_temperature;BME280_humidity;BME280_pressure;Samples;Min_cycle;Max_cycle;Signal;HPM_P1;HPM_P2
2023/07/22 00:03:47;;;;;;;3.67;2.53;;;;;;;18.80;55.95;96693.47;10534775;28;20032;-32
2023/07/22 00:08:49;;;;;;;4.23;2.37;;;;;;;18.73;55.63;96685.03;10538475;28;20293;-33
2023/07/22 00:13:49;;;;;;;5.28;2.25;;;;;;;18.82;56.07;96679.13;10529980;28;20036;-33
2023/07/22 00:18:50;;;;;;;2.27;1.60;;;;;;;18.72;55.55;96685.03;10528687;28;20510;-32
2023/07/22 00:23:50;;;;;;;4.03;1.93;;;;;;;18.71;55.94;96678.28;10532726;28;20036;-32
2023/07/22 00:28:50;;;;;;;2.00;1.33;;;;;;;18.67;55.56;96677.44;10533247;28;20294;-32
2023/07/22 00:33:51;;;;;;;4.03;1.90;;;;;;;18.65;55.61;96673.22;10534126;28;20028;-32
2023/07/22 00:38:52;;;;;;;3.53;1.70;;;;;;;18.65;55.91;96674.06;10523923;28;20036;-32
2023/07/22 00:43:53;;;;;;;4.57;1.83;;;;;;;18.67;55.23;96676.59;10517660;28;20024;-32
2023/07/22 00:48:53;;;;;;;3.23;2.03;;;;;;;18.65;55.66;96668.13;10521199;28;20504;-32
2023/07/22 00:53:53;;;;;;;2.65;1.73;;;;;;;18.70;55.10;96674.06;10524404;28;20099;-32
2023/07/22 00:58:55;;;;;;;2.50;1.80;;;;;;;18.69;55.71;96662.22;10533850;28;20061;-32
2023/07/22 01:03:55;;;;;;;3.13;1.52;;;;;;;18.60;55.18;96664.78;10515655;28;20032;-32
2023/07/22 01:08:59;;;;;;;2.87;1.60;;;;;;;18.61;55.48;96661.41;10513902;28;20032;-32
2023/07/22 01:14:00;;;;;;;3.17;2.08;;;;;;;18.57;55.23;96645.34;10519162;28;20577;-32
2023/07/22 01:19:00;;;;;;;3.28;1.77;;;;;;;18.70;54.60;96667.31;10522882;28;20035;-32
2023/07/22 01:24:01;;;;;;;2.00;1.80;;;;;;;18.64;54.51;96662.25;10507155;28;20028;-32
2023/07/22 01:29:05;;;;;;;2.70;2.17;;;;;;;18.66;54.47;96659.72;10511873;28;20043;-33
2023/07/22 01:34:06;;;;;;;2.15;1.70;;;;;;;18.59;54.38;96653.78;10536021;28;20462;-32
2023/07/22 01:39:06;;;;;;;3.88;1.77;;;;;;;18.55;54.22;96643.66;10532434;28;20071;-33
2023/07/22 01:44:07;;;;;;;2.28;1.73;;;;;;;18.61;54.40;96646.19;10521433;28;20024;-32
2023/07/22 01:49:12;;;;;;;2.13;1.60;;;;;;;18.51;54.27;96654.66;10504926;28;20031;-32
2023/07/22 01:54:12;;;;;;;2.38;1.73;;;;;;;18.52;54.53;96652.13;10523075;28;20048;-32
2023/07/22 01:59:13;;;;;;;3.67;2.15;;;;;;;18.62;54.95;96658.88;10510653;28;20443;-32
2023/07/22 02:04:13;;;;;;;3.75;2.00;;;;;;;18.50;54.18;96658.03;10513654;28;20030;-32
2023/07/22 02:09:13;;;;;;;2.27;1.60;;;;;;;18.47;54.69;96652.94;10522708;28;20516;-33
2023/07/22 02:14:14;;;;;;;2.47;1.70;;;;;;;18.51;54.79;96657.19;10497979;28;20082;-33
2023/07/22 02:19:15;;;;;;;3.80;1.90;;;;;;;18.46;54.61;96652.13;10506203;28;20032;-32
2023/07/22 02:24:15;;;;;;;3.63;1.67;;;;;;;18.48;54.20;96652.09;10551693;28;20031;-32
2023/07/22 02:29:16;;;;;;;1.90;1.33;;;;;;;18.36;54.22;96664.81;10520246;28;20045;-33
2023/07/22 02:34:16;;;;;;;2.90;1.27;;;;;;;18.34;53.54;96652.13;10536488;28;20045;-32
2023/07/22 02:39:17;;;;;;;2.30;1.40;;;;;;;18.36;53.99;96658.06;10519754;28;20141;-31
2023/07/22 02:44:17;;;;;;;2.33;1.60;;;;;;;18.46;53.78;96646.19;10519844;28;20021;-32
2023/07/22 02:49:17;;;;;;;2.53;1.80;;;;;;;18.54;53.53;96654.63;10539051;28;20274;-32
2023/07/22 02:54:18;;;;;;;2.00;1.53;;;;;;;18.50;53.24;96653.78;10544978;28;20042;-31
2023/07/22 02:59:18;;;;;;;3.37;1.73;;;;;;;18.46;53.61;96652.13;10522411;28;20085;-32
2023/07/22 03:04:19;;;;;;;2.53;1.50;;;;;;;18.37;53.46;96647.06;10537051;28;20056;-32
2023/07/22 03:09:21;;;;;;;1.83;1.50;;;;;;;18.39;52.72;96647.03;10529647;28;20287;-32
2023/07/22 03:14:22;;;;;;;2.30;1.70;;;;;;;18.36;53.14;96662.25;10504681;28;20036;-32
2023/07/22 03:19:22;;;;;;;1.88;1.30;;;;;;;18.33;52.91;96659.75;10535749;28;20032;-32
2023/07/22 03:24:23;;;;;;;2.00;1.33;;;;;;;18.29;52.87;96658.00;10541269;28;20028;-31
2023/07/22 03:29:24;;;;;;;1.80;1.40;;;;;;;18.30;52.96;96649.59;10534991;28;20044;-33
2023/07/22 03:34:24;;;;;;;2.28;1.30;;;;;;;18.21;54.08;96654.63;10528757;28;20031;-32
2023/07/22 03:39:25;;;;;;;1.53;1.30;;;;;;;18.12;52.70;96655.50;10535294;28;20110;-32
2023/07/22 03:44:26;;;;;;;1.90;1.50;;;;;;;18.14;52.58;96653.78;10535690;28;20309;-32
2023/07/22 03:49:26;;;;;;;3.03;1.63;;;;;;;18.19;53.17;96652.13;10516922;28;20086;-32
2023/07/22 03:54:26;;;;;;;3.13;1.50;;;;;;;18.17;52.89;96645.34;10533356;28;20037;-32
2023/07/22 03:59:28;;;;;;;2.73;1.40;;;;;;;18.09;53.16;96647.03;10522975;28;20040;-32
2023/07/22 04:04:28;;;;;;;1.70;1.20;;;;;;;18.01;53.00;96646.19;10535204;28;20542;-32
2023/07/22 04:09:29;;;;;;;3.47;1.40;;;;;;;18.00;53.22;96654.63;10520146;28;20111;-32
2023/07/22 04:14:29;;;;;;;2.33;1.53;;;;;;;17.99;52.86;96652.94;10518706;28;20347;-32
2023/07/22 04:19:33;;;;;;;5.22;1.63;;;;;;;18.08;53.28;96655.47;10534631;28;20285;-33
2023/07/22 04:24:33;;;;;;;1.80;1.20;;;;;;;18.00;53.41;96644.50;10523751;28;20485;-32
2023/07/22 04:29:35;;;;;;;3.70;1.33;;;;;;;18.01;52.38;96636.88;10515110;28;20418;-33
2023/07/22 04:34:40;;;;;;;1.83;1.40;;;;;;;17.93;53.07;96630.97;10533568;28;20060;-32
2023/07/22 04:39:40;;;;;;;2.90;1.50;;;;;;;18.11;52.22;96637.75;10531951;28;20077;-32
2023/07/22 04:44:41;;;;;;;2.07;1.50;;;;;;;18.05;52.91;96647.88;10527001;28;20435;-32
2023/07/22 04:49:41;;;;;;;1.30;1.10;;;;;;;18.02;52.56;96642.81;10519229;28;20394;-36
2023/07/22 04:54:41;;;;;;;1.93;1.30;;;;;;;18.03;53.01;96649.56;10533018;28;20036;-33
2023/07/22 04:59:42;;;;;;;2.63;1.50;;;;;;;17.98;53.53;96669.00;10532498;28;20401;-33
2023/07/22 05:04:42;;;;;;;1.65;1.25;;;;;;;17.96;53.55;96668.13;10521749;28;20086;-32
2023/07/22 05:09:42;;;;;;;2.27;1.40;;;;;;;18.03;54.10;96672.34;10520108;28;20028;-32
2023/07/22 05:14:45;;;;;;;2.27;1.33;;;;;;;17.97;53.77;96669.81;10530511;28;20028;-32
2023/07/22 05:19:46;;;;;;;3.47;1.98;;;;;;;18.06;53.87;96674.88;10526391;28;20096;-33
2023/07/22 05:24:46;;;;;;;2.50;1.10;;;;;;;18.02;53.93;96680.81;10530792;28;20505;-32
2023/07/22 05:29:46;;;;;;;1.60;1.20;;;;;;;18.03;54.19;96680.81;10525302;28;20024;-33
2023/07/22 05:34:47;;;;;;;3.80;1.47;;;;;;;18.33;53.87;96673.25;10526622;28;20286;-32
2023/07/22 05:39:47;;;;;;;2.80;1.40;;;;;;;18.45;53.85;96685.06;10530269;28;20752;-32
2023/07/22 05:44:48;;;;;;;1.60;1.50;;;;;;;18.41;53.81;96680.88;10531433;28;20465;-32
2023/07/22 05:49:48;;;;;;;2.50;1.80;;;;;;;18.56;53.13;96679.16;10521962;28;20038;-32
2023/07/22 05:54:49;;;;;;;2.40;1.20;;;;;;;18.60;53.17;96677.47;10498799;28;20039;-34
2023/07/22 05:59:50;;;;;;;1.88;1.40;;;;;;;18.74;53.05;96680.84;10484654;28;20282;-33
2023/07/22 06:04:50;;;;;;;2.80;1.00;;;;;;;18.53;53.29;96679.16;10488026;28;20051;-32
2023/07/22 06:09:50;;;;;;;2.40;1.20;;;;;;;18.61;53.77;96682.53;10482904;28;20044;-33
2023/07/22 06:14:51;;;;;;;2.03;1.07;;;;;;;18.77;53.46;96683.34;10488047;28;20305;-32
2023/07/22 06:19:51;;;;;;;1.33;1.20;;;;;;;18.82;53.46;96687.56;10488156;28;20505;-33
2023/07/22 06:24:52;;;;;;;1.67;1.13;;;;;;;18.87;53.14;96690.09;10465610;28;20036;-33
2023/07/22 06:29:52;;;;;;;1.10;1.00;;;;;;;18.85;53.35;96685.00;10488730;28;20060;-32
2023/07/22 06:34:52;;;;;;;2.17;1.13;;;;;;;19.34;52.66;96690.84;10531435;28;20351;-32
2023/07/22 06:39:53;;;;;;;3.00;1.30;;;;;;;19.27;52.77;96686.63;10496721;28;20028;-32
2023/07/22 06:44:53;;;;;;;2.20;1.20;;;;;;;19.55;51.92;96689.06;10485225;28;20295;-32
2023/07/22 06:49:54;;;;;;;2.07;1.20;;;;;;;19.55;52.03;96683.13;10502323;28;20036;-32
2023/07/22 06:54:54;;;;;;;2.20;1.38;;;;;;;19.69;52.20;96692.34;10529219;28;20069;-33
2023/07/22 06:59:55;;;;;;;2.78;1.15;;;;;;;19.67;51.98;96688.16;10517035;28;20417;-32
2023/07/22 07:04:56;;;;;;;2.25;1.38;;;;;;;19.74;52.03;96689.78;10519507;28;20086;-32
2023/07/22 07:09:56;;;;;;;4.03;1.63;;;;;;;19.86;52.25;96689.72;10516959;28;20119;-33
2023/07/22 07:14:56;;;;;;;3.23;1.30;;;;;;;19.88;52.29;96682.94;10526898;28;20456;-33
2023/07/22 07:19:57;;;;;;;1.63;1.17;;;;;;;19.85;52.03;96688.88;10523451;28;20668;-33
2023/07/22 07:24:57;;;;;;;1.47;1.20;;;;;;;19.82;52.13;96686.34;10532706;28;20282;-32
2023/07/22 07:29:57;;;;;;;2.43;1.07;;;;;;;19.86;52.87;96694.81;10527273;28;20075;-32
2023/07/22 07:34:58;;;;;;;2.60;1.40;;;;;;;19.99;52.98;96692.19;10520479;28;20325;-32
2023/07/22 07:39:59;;;;;;;2.70;1.37;;;;;;;20.02;52.05;96696.41;10518888;28;20093;-32
2023/07/22 07:44:59;;;;;;;1.65;1.35;;;;;;;20.02;52.27;96696.41;10522309;28;20708;-33
2023/07/22 07:50:00;;;;;;;4.63;2.37;;;;;;;20.17;52.82;96693.81;10517404;28;20119;-33
2023/07/22 07:55:02;;;;;;;4.60;1.63;;;;;;;20.21;52.59;96688.69;10511582;28;20870;-32
2023/07/22 08:00:03;;;;;;;2.63;1.83;;;;;;;20.32;52.99;96691.97;10525383;28;20368;-32
2023/07/22 08:05:05;;;;;;;2.63;1.70;;;;;;;20.33;52.45;96697.94;10523163;28;20067;-33
2023/07/22 08:10:07;;;;;;;2.10;1.73;;;;;;;20.24;52.72;96708.13;10527436;28;20059;-33
2023/07/22 08:15:08;;;;;;;2.85;1.67;;;;;;;20.31;52.73;96697.06;10514660;28;20036;-32
2023/07/22 08:20:10;;;;;;;5.60;1.83;;;;;;;20.29;54.12;96701.31;10539013;28;20096;-33
2023/07/22 08:25:10;;;;;;;2.40;1.48;;;;;;;20.26;54.09;96696.28;10520589;28;20532;-33
2023/07/22 08:30:11;;;;;;;1.80;1.20;;;;;;;20.22;53.15;96694.59;10520228;28;20101;-32
2023/07/22 08:35:11;;;;;;;2.40;1.90;;;;;;;20.46;52.61;96711.34;10514963;28;20028;-32
2023/07/22 08:40:11;;;;;;;3.87;1.67;;;;;;;20.43;51.80;96702.91;10523216;28;20033;-32
2023/07/22 08:45:14;;;;;;;4.78;2.63;;;;;;;20.55;51.63;96701.09;10523946;28;20020;-32
2023/07/22 08:50:19;;;;;;;4.28;1.80;;;;;;;20.46;51.62;96700.34;10524159;28;20387;-33
2023/07/22 08:55:20;;;;;;;4.18;1.88;;;;;;;20.52;51.71;96696.06;10510106;28;20043;-32
2023/07/22 09:00:21;;;;;;;2.67;1.50;;;;;;;20.37;52.13;96699.56;10513441;28;20024;-35
2023/07/22 09:05:22;;;;;;;3.72;1.38;;;;;;;20.55;51.99;96713.81;10522497;28;20062;-33
2023/07/22 09:10:24;;;;;;;1.95;1.23;;;;;;;20.55;51.46;96716.38;10519734;28;20035;-32
2023/07/22 09:15:25;;;;;;;2.50;1.30;;;;;;;20.45;51.15;96708.84;10525737;28;20036;-32
2023/07/22 09:20:28;;;;;;;1.70;0.95;;;;;;;20.64;48.70;96715.47;10528171;28;20040;-34
2023/07/22 09:25:28;;;;;;;3.42;1.38;;;;;;;20.62;49.79;96712.91;10537797;28;20036;-33
2023/07/22 09:30:34;;;;;;;1.17;1.08;;;;;;;20.79;49.46;96712.78;10537873;28;20053;-33
2023/07/22 09:35:40;;;;;;;6.03;1.10;;;;;;;20.73;47.02;96721.28;10525059;28;20071;-33
2023/07/22 09:40:41;;;;;;;3.70;1.33;;;;;;;20.81;46.91;96719.53;10519237;28;20413;-32
2023/07/22 09:45:41;;;;;;;3.58;1.17;;;;;;;20.63;47.89;96714.59;10523524;28;20040;-32
2023/07/22 09:50:42;;;;;;;5.63;0.93;;;;;;;20.72;47.19;96719.59;10523894;28;20046;-34
2023/07/22 09:55:42;;;;;;;2.00;0.97;;;;;;;20.44;48.99;96710.53;10524667;28;20876;-32
2023/07/22 10:00:48;;;;;;;5.95;1.35;;;;;;;20.45;49.43;96694.41;10532138;28;20036;-33
2023/07/22 10:05:50;;;;;;;2.93;1.50;;;;;;;20.64;47.80;96695.94;10527871;28;20035;-33
2023/07/22 10:10:54;;;;;;;3.08;1.35;;;;;;;20.62;48.79;96690.03;10520295;28;20043;-34
2023/07/22 10:15:54;;;;;;;2.35;1.40;;;;;;;20.49;49.01;96691.00;10523578;28;20032;-33
2023/07/22 10:20:55;;;;;;;8.02;2.30;;;;;;;20.40;49.94;96690.22;10533878;28;20039;-33
2023/07/22 10:25:57;;;;;;;5.53;2.25;;;;;;;20.32;51.17;96691.13;10529779;28;20051;-32
2023/07/22 10:30:58;;;;;;;5.22;1.55;;;;;;;20.27;51.12;96698.78;10521702;28;20500;-32
2023/07/22 10:36:17;;;;;;;5.10;1.38;;;;;;;20.25;51.29;96684.44;10526441;28;20040;-32
2023/07/22 10:41:17;;;;;;;2.13;1.05;;;;;;;20.21;51.50;96677.66;10539276;28;20038;-32
2023/07/22 10:46:30;;;;;;;10.05;1.85;;;;;;;20.27;51.66;96675.91;10522470;28;20481;-32
2023/07/22 10:51:36;;;;;;;6.43;1.45;;;;;;;20.38;51.50;96670.75;10537880;28;20039;-33
2023/07/22 10:56:36;;;;;;;6.32;1.42;;;;;;;20.50;50.97;96672.34;10536622;28;20055;-32
2023/07/22 11:01:38;;;;;;;3.33;1.10;;;;;;;20.49;51.11;96665.56;10537767;28;20058;-35
2023/07/22 11:06:52;;;;;;;5.88;1.45;;;;;;;20.42;51.50;96662.25;10536644;28;20039;-34
2023/07/22 11:11:54;;;;;;;4.90;1.23;;;;;;;20.36;51.37;96665.66;10537055;28;20035;-32
2023/07/22 11:16:57;;;;;;;2.80;1.45;;;;;;;20.31;51.71;96658.94;10528665;28;20138;-32
2023/07/22 11:21:58;;;;;;;2.22;1.17;;;;;;;20.28;51.59;96651.34;10537581;28;20109;-32
2023/07/22 11:26:58;;;;;;;5.13;1.47;;;;;;;20.26;51.92;96651.34;10531433;28;20109;-32
2023/07/22 11:31:59;;;;;;;4.60;1.23;;;;;;;20.26;52.13;96645.44;10538738;28;20285;-34
2023/07/22 11:36:59;;;;;;;2.97;1.40;;;;;;;20.40;51.73;96645.28;10527187;28;20109;-32
2023/07/22 11:42:02;;;;;;;2.13;1.10;;;;;;;20.53;51.60;96646.88;10535650;28;20313;-32
2023/07/22 11:47:04;;;;;;;2.40;1.17;;;;;;;20.50;51.72;96631.66;10535646;28;20082;-33
2023/07/22 11:52:15;;;;;;;4.13;1.50;;;;;;;20.42;51.67;96638.50;10539174;28;20417;-33
2023/07/22 11:57:18;;;;;;;1.50;1.17;;;;;;;20.36;51.72;96635.16;10523171;28;20062;-32
2023/07/22 12:02:19;;;;;;;2.05;1.75;;;;;;;20.29;51.89;96625.91;10533997;28;20031;-33
2023/07/22 12:07:28;;;;;;;2.15;1.13;;;;;;;20.30;52.20;96626.75;10532865;28;20478;-32
2023/07/22 12:12:41;;;;;;;4.38;1.35;;;;;;;20.29;52.18;96625.06;10525002;28;20032;-32
2023/07/22 12:17:45;;;;;;;1.50;1.10;;;;;;;20.28;52.21;96619.13;10534249;28;20082;-32
2023/07/22 12:22:46;;;;;;;1.85;0.88;;;;;;;20.37;52.43;96620.75;10536171;28;20490;-32
2023/07/22 12:27:46;;;;;;;3.97;1.30;;;;;;;20.53;52.14;96623.13;10525163;28;20024;-33
2023/07/22 12:32:47;;;;;;;3.45;1.10;;;;;;;20.56;52.12;96621.38;10524630;28;20803;-33
2023/07/22 12:37:48;;;;;;;0.90;0.80;;;;;;;20.49;52.44;96613.84;10526319;28;20577;-32
2023/07/22 12:42:48;;;;;;;1.87;1.13;;;;;;;20.42;52.33;96618.16;10520023;28;20035;-32
2023/07/22 12:47:49;;;;;;;1.02;0.95;;;;;;;20.38;52.30;96612.25;10533330;28;20042;-33
2023/07/22 12:52:49;;;;;;;2.00;1.60;;;;;;;20.33;52.37;96606.38;10524306;28;20029;-33
2023/07/22 12:57:49;;;;;;;0.80;0.80;;;;;;;20.31;52.54;96592.81;10532328;28;20343;-34
2023/07/22 13:02:50;;;;;;;0.90;0.80;;;;;;;20.32;52.76;96580.09;10532581;28;20085;-34
2023/07/22 13:07:50;;;;;;;1.53;1.10;;;;;;;20.34;52.64;96583.47;10535641;28;20031;-33
2023/07/22 13:12:51;;;;;;;5.80;1.27;;;;;;;20.55;53.21;96579.00;10521086;28;20505;-33
2023/07/22 13:17:51;;;;;;;2.10;1.10;;;;;;;20.62;52.76;96585.72;10523020;28;20044;-32
2023/07/22 13:22:51;;;;;;;2.50;1.10;;;;;;;20.57;52.46;96579.00;10537289;28;20058;-32
2023/07/22 13:27:52;;;;;;;2.03;1.00;;;;;;;20.47;52.68;96570.63;10525225;28;20031;-33
2023/07/22 13:32:52;;;;;;;1.70;0.80;;;;;;;20.42;52.61;96575.78;10523954;28;20044;-34
2023/07/22 13:37:53;;;;;;;1.48;1.00;;;;;;;20.39;52.78;96577.47;10524908;28;20036;-33
2023/07/22 13:42:53;;;;;;;1.87;1.10;;;;;;;20.37;53.18;96580.06;10530848;28;20035;-32
2023/07/22 13:47:53;;;;;;;3.40;1.00;;;;;;;20.39;53.11;96574.94;10530134;28;20048;-32
2023/07/22 13:52:54;;;;;;;2.20;1.20;;;;;;;20.56;53.50;96562.88;10517061;28;20047;-32
2023/07/22 13:57:54;;;;;;;5.30;1.47;;;;;;;20.67;53.77;96558.56;10523705;28;20040;-33
2023/07/22 14:02:55;;;;;;;0.97;0.80;;;;;;;20.63;53.05;96564.50;10544136;28;20689;-32
2023/07/22 14:07:55;;;;;;;3.25;1.00;;;;;;;20.56;53.21;96562.88;10540605;28;20032;-33
2023/07/22 14:12:55;;;;;;;6.20;1.07;;;;;;;20.49;52.95;96566.38;10536918;28;20039;-32
2023/07/22 14:17:56;;;;;;;1.57;1.20;;;;;;;20.45;53.25;96562.16;10544166;28;20042;-32
2023/07/22 14:22:57;;;;;;;3.40;1.13;;;;;;;20.42;53.17;96552.03;10526284;28;20039;-33
2023/07/22 14:27:57;;;;;;;3.25;1.23;;;;;;;20.42;53.03;96555.44;10528813;28;20088;-33
2023/07/22 14:32:58;;;;;;;3.60;1.40;;;;;;;20.39;53.43;96552.06;10534144;28;20032;-33
2023/07/22 14:37:59;;;;;;;3.05;1.27;;;;;;;20.56;53.48;96557.81;10531222;28;20036;-35
2023/07/22 14:42:59;;;;;;;1.90;1.00;;;;;;;20.68;53.87;96550.06;10528137;28;20430;-33
2023/07/22 14:48:00;;;;;;;2.03;1.03;;;;;;;20.65;53.17;96549.25;10530544;28;20051;-32
2023/07/22 14:53:01;;;;;;;3.65;1.10;;;;;;;20.55;53.41;96537.50;10532110;28;20028;-33
2023/07/22 14:58:01;;;;;;;2.05;1.00;;;;;;;20.50;53.19;96551.94;10533984;28;20032;-33
2023/07/22 15:03:01;;;;;;;2.70;1.20;;;;;;;20.47;53.33;96541.81;10529844;28;20478;-32
2023/07/22 15:08:02;;;;;;;1.40;1.00;;;;;;;20.44;53.35;96539.28;10531320;28;20032;-32
2023/07/22 15:13:02;;;;;;;1.45;0.90;;;;;;;20.42;53.59;96539.31;10536346;28;20036;-32
2023/07/22 15:18:03;;;;;;;3.80;1.17;;;;;;;20.42;53.08;96535.09;10531441;28;20028;-32
2023/07/22 15:23:03;;;;;;;1.60;1.00;;;;;;;20.51;54.72;96521.41;10526399;28;20517;-33
2023/07/22 15:28:04;;;;;;;3.23;0.93;;;;;;;20.68;54.44;96528.84;10531171;28;20292;-33
2023/07/22 15:33:05;;;;;;;1.55;0.88;;;;;;;20.71;53.90;96522.03;10533795;28;20032;-33
2023/07/22 15:38:05;;;;;;;3.38;1.48;;;;;;;20.64;53.83;96527.22;10532862;28;20031;-33
2023/07/22 15:43:06;;;;;;;2.47;0.93;;;;;;;20.57;53.62;96523.03;10544233;28;20035;-33
2023/07/22 15:48:06;;;;;;;2.60;0.90;;;;;;;20.52;53.54;96514.63;10527084;28;20308;-32
2023/07/22 15:53:06;;;;;;;6.43;1.03;;;;;;;20.49;53.46;96517.19;10526244;28;20036;-32
2023/07/22 15:58:07;;;;;;;1.40;1.00;;;;;;;20.47;53.79;96524.00;10525505;28;20282;-33
2023/07/22 16:03:10;;;;;;;3.57;0.80;;;;;;;20.46;53.83;96512.97;10540485;28;20073;-32
2023/07/22 16:08:11;;;;;;;1.90;0.95;;;;;;;20.38;53.98;96508.00;10534210;28;20043;-33
2023/07/22 16:13:13;;;;;;;0.97;0.80;;;;;;;20.36;53.82;96514.81;10535120;28;20036;-33
2023/07/22 16:18:14;;;;;;;0.82;0.82;;;;;;;20.32;53.93;96515.69;10527773;28;20050;-32
2023/07/22 16:23:14;;;;;;;0.70;0.70;;;;;;;20.30;54.10;96514.88;10521065;28;20040;-33
2023/07/22 16:28:15;;;;;;;1.47;1.17;;;;;;;20.29;53.67;96528.44;10532916;28;20035;-32
2023/07/22 16:33:16;;;;;;;1.67;1.35;;;;;;;20.23;53.55;96515.78;10523370;28;20046;-32
2023/07/22 16:38:17;;;;;;;0.98;0.68;;;;;;;20.22;53.53;96521.72;10531288;28;20063;-32
2023/07/22 16:43:17;;;;;;;0.90;0.87;;;;;;;20.26;53.59;96518.31;10524616;28;20070;-32
2023/07/22 16:48:18;;;;;;;1.67;1.07;;;;;;;20.21;53.27;96513.28;10533228;28;20089;-33
2023/07/22 16:53:18;;;;;;;1.05;0.80;;;;;;;20.19;53.19;96514.97;10533622;28;20044;-32
2023/07/22 16:58:18;;;;;;;1.00;0.90;;;;;;;20.20;53.65;96510.75;10533501;28;20426;-34
2023/07/22 17:03:19;;;;;;;1.87;0.87;;;;;;;20.26;53.74;96511.50;10532777;28;20039;-33
2023/07/22 17:08:19;;;;;;;1.33;1.10;;;;;;;20.22;53.78;96511.56;10532657;28;20089;-32
2023/07/22 17:13:20;;;;;;;1.53;0.97;;;;;;;20.28;53.73;96524.22;10538812;28;20031;-33
2023/07/22 17:18:20;;;;;;;1.37;1.23;;;;;;;20.31;53.43;96521.63;10527585;28;20036;-32
2023/07/22 17:23:20;;;;;;;1.40;1.00;;;;;;;20.23;53.54;96509.00;10523830;28;20340;-33
2023/07/22 17:28:21;;;;;;;1.27;1.05;;;;;;;20.30;53.48;96514.88;10521036;28;20046;-33
2023/07/22 17:33:21;;;;;;;3.63;1.70;;;;;;;20.38;53.63;96512.22;10521821;28;20032;-33
2023/07/22 17:38:24;;;;;;;1.43;0.80;;;;;;;20.29;53.33;96497.94;10524606;28;20464;-32
2023/07/22 17:43:24;;;;;;;2.50;1.30;;;;;;;20.32;53.28;96508.06;10529224;28;20024;-34
2023/07/22 17:48:24;;;;;;;2.43;0.93;;;;;;;20.31;53.60;96516.56;10534446;28;20027;-33
2023/07/22 17:53:25;;;;;;;3.63;1.27;;;;;;;20.34;53.55;96501.28;10540711;28;20088;-33
2023/07/22 17:58:26;;;;;;;1.20;1.07;;;;;;;20.23;53.40;96508.16;10539594;28;20085;-32
2023/07/22 18:03:26;;;;;;;2.45;1.42;;;;;;;20.23;53.71;96508.16;10539607;28;20280;-33
2023/07/22 18:08:27;;;;;;;2.23;1.30;;;;;;;20.28;53.64;96511.50;10535966;28;20038;-33
2023/07/22 18:13:27;;;;;;;2.17;1.40;;;;;;;20.31;53.55;96499.59;10523405;28;20079;-33
2023/07/22 18:18:27;;;;;;;1.87;1.27;;;;;;;20.33;53.43;96505.50;10526559;28;20028;-33
2023/07/22 18:23:28;;;;;;;2.03;1.60;;;;;;;20.36;53.45;96505.47;10536346;28;20030;-33
2023/07/22 18:28:28;;;;;;;2.22;1.50;;;;;;;20.36;53.26;96509.72;10519594;28;20115;-33
2023/07/22 18:33:29;;;;;;;4.43;2.40;;;;;;;20.38;53.26;96514.78;10533319;28;20032;-32
2023/07/22 18:38:29;;;;;;;3.33;1.90;;;;;;;20.63;54.18;96507.72;10523431;28;20111;-33
2023/07/22 18:43:30;;;;;;;2.55;1.77;;;;;;;20.72;53.86;96510.16;10533637;28;20039;-33
2023/07/22 18:48:30;;;;;;;2.20;1.70;;;;;;;20.63;53.31;96510.28;10531785;28;20398;-33
2023/07/22 18:53:31;;;;;;;5.87;2.10;;;;;;;20.52;53.56;96517.16;10533799;28;20282;-33
2023/07/22 18:58:31;;;;;;;2.70;1.63;;;;;;;20.44;53.53;96514.72;10540862;28;20036;-32
2023/07/22 19:03:31;;;;;;;5.57;1.53;;;;;;;20.44;53.58;96517.25;10541895;28;20041;-32
2023/07/22 19:08:32;;;;;;;2.40;1.60;;;;;;;20.46;53.89;96523.16;10532196;28;20028;-33
2023/07/22 19:13:32;;;;;;;1.90;1.60;;;;;;;20.42;54.21;96532.56;10518643;28;20418;-33
2023/07/22 19:18:33;;;;;;;2.72;1.40;;;;;;;20.40;53.50;96541.00;10536989;28;20293;-31
2023/07/22 19:23:33;;;;;;;3.53;1.90;;;;;;;20.57;54.11;96535.78;10526736;28;20040;-33
2023/07/22 19:28:34;;;;;;;3.60;2.23;;;;;;;20.71;54.66;96537.28;10531053;28;20713;-33
2023/07/22 19:33:34;;;;;;;2.07;1.50;;;;;;;20.69;53.72;96544.09;10539487;28;20601;-32
2023/07/22 19:38:35;;;;;;;2.23;1.40;;;;;;;20.54;53.44;96543.44;10532057;28;20055;-35
2023/07/22 19:43:37;;;;;;;1.73;1.35;;;;;;;20.44;53.70;96552.84;10542420;28;20042;-32
2023/07/22 19:48:39;;;;;;;1.77;1.35;;;;;;;20.42;53.76;96563.91;10528964;28;20383;-33
2023/07/22 19:53:43;;;;;;;2.00;1.38;;;;;;;20.40;53.64;96560.53;10531409;28;20533;-33
2023/07/22 19:58:43;;;;;;;1.50;1.30;;;;;;;20.39;53.41;96562.22;10539799;28;20532;-33
2023/07/22 20:03:43;;;;;;;3.53;1.30;;;;;;;20.42;53.55;96560.53;10532672;28;20042;-33
2023/07/22 20:08:49;;;;;;;1.57;1.00;;;;;;;20.39;53.89;96564.75;10524060;28;20027;-32
2023/07/22 20:13:49;;;;;;;1.77;1.35;;;;;;;20.61;53.86;96563.69;10529712;28;20086;-33
2023/07/22 20:18:50;;;;;;;1.97;1.80;;;;;;;20.75;54.34;96561.00;10536189;28;20455;-33
2023/07/22 20:23:51;;;;;;;2.67;1.58;;;;;;;20.70;53.72;96557.66;10542188;28;20040;-32
2023/07/22 20:28:52;;;;;;;3.13;1.63;;;;;;;20.61;53.53;96553.53;10530047;28;20498;-33
2023/07/22 20:33:52;;;;;;;3.03;1.50;;;;;;;20.52;53.70;96566.34;10522283;28;20040;-33
2023/07/22 20:38:53;;;;;;;4.30;2.03;;;;;;;20.27;52.90;96560.69;10536308;28;20036;-32
2023/07/22 20:43:53;;;;;;;3.43;2.47;;;;;;;20.10;52.82;96567.63;10531168;28;20290;-33
2023/07/22 20:48:53;;;;;;;4.40;2.37;;;;;;;19.94;52.87;96566.03;10524120;28;20036;-32
2023/07/22 20:53:54;;;;;;;3.67;2.50;;;;;;;19.89;53.20;96553.34;10515692;28;20036;-33
2023/07/22 20:58:54;;;;;;;3.17;2.67;;;;;;;19.84;53.00;96554.25;10536250;28;20035;-32
2023/07/22 21:03:54;;;;;;;4.00;1.87;;;;;;;19.86;52.94;96552.53;10538775;28;20505;-33
2023/07/22 21:08:55;;;;;;;3.60;2.13;;;;;;;19.79;52.99;96550.88;10534920;28;20538;-32
2023/07/22 21:13:55;;;;;;;5.47;2.30;;;;;;;19.69;54.03;96554.38;10535951;28;20063;-32
2023/07/22 21:18:56;;;;;;;2.17;1.83;;;;;;;19.68;54.05;96562.84;10528418;28;20040;-32
2023/07/22 21:23:56;;;;;;;4.35;2.50;;;;;;;19.59;54.06;96553.56;10527671;28;20044;-32
2023/07/22 21:28:57;;;;;;;3.20;2.60;;;;;;;19.61;54.14;96558.66;10525168;28;20042;-32
2023/07/22 21:33:58;;;;;;;3.43;2.30;;;;;;;19.61;53.67;96567.09;10534723;28;20036;-31
2023/07/22 21:38:58;;;;;;;2.78;2.25;;;;;;;19.54;53.62;96559.53;10527645;28;20067;-32
2023/07/22 21:43:58;;;;;;;5.33;2.47;;;;;;;19.55;53.57;96558.69;10528125;28;20032;-32
2023/07/22 21:48:59;;;;;;;3.20;2.50;;;;;;;19.52;54.42;96561.25;10542850;28;20039;-32
2023/07/22 21:53:59;;;;;;;5.00;1.97;;;;;;;19.52;53.86;96557.00;10529053;28;20032;-32
2023/07/22 21:58:59;;;;;;;2.60;2.40;;;;;;;19.54;54.03;96557.00;10538440;28;20051;-32
2023/07/22 22:04:00;;;;;;;3.45;2.22;;;;;;;19.45;53.63;96554.53;10529610;28;20040;-32
2023/07/22 22:09:00;;;;;;;4.57;2.30;;;;;;;19.42;53.98;96555.38;10538826;28;20035;-32
2023/07/22 22:14:00;;;;;;;3.90;2.30;;;;;;;19.40;53.79;96556.22;10531754;28;20409;-32
2023/07/22 22:19:02;;;;;;;3.23;2.33;;;;;;;19.41;53.97;96552.88;10530990;28;20326;-33
2023/07/22 22:24:03;;;;;;;3.30;2.10;;;;;;;19.37;54.41;96556.28;10541751;28;20117;-32
2023/07/22 22:29:04;;;;;;;3.67;2.15;;;;;;;19.43;53.86;96556.25;10531536;28;20032;-34
2023/07/22 22:34:06;;;;;;;3.03;1.92;;;;;;;19.35;53.96;96555.44;10524290;28;20040;-32
2023/07/22 22:39:07;;;;;;;3.20;2.35;;;;;;;19.39;54.11;96562.16;10530844;28;20501;-33
2023/07/22 22:44:07;;;;;;;3.87;1.90;;;;;;;19.38;53.38;96547.78;10532907;28;20031;-32
2023/07/22 22:49:08;;;;;;;3.60;1.67;;;;;;;19.39;53.65;96549.47;10538479;28;20032;-32
2023/07/22 22:54:08;;;;;;;2.63;2.27;;;;;;;19.38;53.92;96548.66;10522094;28;20092;-32
2023/07/22 22:59:12;;;;;;;3.13;1.90;;;;;;;19.34;53.62;96546.16;10532252;28;20289;-33
2023/07/22 23:04:12;;;;;;;2.28;1.95;;;;;;;19.35;53.57;96547.81;10533034;28;20798;-32
2023/07/22 23:09:15;;;;;;;3.73;2.10;;;;;;;19.34;53.64;96548.69;10535443;28;20482;-32
2023/07/22 23:14:15;;;;;;;7.63;2.58;;;;;;;19.25;53.97;96551.28;10532485;28;20302;-32
2023/07/22 23:19:15;;;;;;;3.27;2.07;;;;;;;19.30;53.66;96539.38;10547450;28;20028;-32